sensor_id;sensor_type;location;lat;lon;timestamp;P1;durP1;ratioP1;P2;durP2;ratioP2
20336;SDS011;10326;53.660;10.200;2023-03-23T00:02:07;6.38;;;5.35;;
20336;SDS011;10326;53.660;10.200;2023-03-23T00:04:35;5.68;;;5.00;;
20336;SDS011;10326;53.660;10.200;2023-03-23T00:07:03;5.88;;;5.18;;
20336;SDS011;10326;53.660;10.200;2023-03-23T00:09:30;5.63;;;5.13;;
20336;SDS011;10326;53.660;10.200;2023-03-23T00:11:59;6.15;;;5.50;;
20336;SDS011;10326;53.660;10.200;2023-03-23T00:14:31;6.18;;;5.63;;
20336;SDS011;10326;53.660;10.200;2023-03-23T00:17:06;5.53;;;5.03;;
20336;SDS011;10326;53.660;10.200;2023-03-23T00:19:36;6.50;;;5.82;;
20336;SDS011;10326;53.660;10.200;2023-03-23T00:22:12;9.07;;;6.72;;
20336;SDS011;10326;53.660;10.200;2023-03-23T00:24:42;5.88;;;5.38;;
20336;SDS011;10326;53.660;10.200;2023-03-23T00:27:10;7.35;;;5.95;;
20336;SDS011;10326;53.660;10.200;2023-03-23T00:29:40;8.68;;;6.10;;
20336;SDS011;10326;53.660;10.200;2023-03-23T00:32:10;8.65;;;6.50;;
20336;SDS011;10326;53.660;10.200;2023-03-23T00:34:41;7.35;;;6.75;;
20336;SDS011;10326;53.660;10.200;2023-03-23T00:37:12;6.95;;;6.25;;
20336;SDS011;10326;53.660;10.200;2023-03-23T00:39:42;7.32;;;6.63;;
20336;SDS011;10326;53.660;10.200;2023-03-23T00:42:11;7.97;;;7.28;;
20336;SDS011;10326;53.660;10.200;2023-03-23T00:44:40;7.28;;;6.57;;
20336;SDS011;10326;53.660;10.200;2023-03-23T00:47:08;9.25;;;7.38;;
20336;SDS011;10326;53.660;10.200;2023-03-23T00:49:37;8.10;;;7.40;;
20336;SDS011;10326;53.660;10.200;2023-03-23T00:52:06;8.07;;;7.32;;
20336;SDS011;10326;53.660;10.200;2023-03-23T00:54:35;8.80;;;8.00;;
20336;SDS011;10326;53.660;10.200;2023-03-23T00:57:03;8.32;;;7.53;;
20336;SDS011;10326;53.660;10.200;2023-03-23T00:59:31;10.93;;;8.23;;
20336;SDS011;10326;53.660;10.200;2023-03-23T01:01:59;8.48;;;7.78;;
20336;SDS011;10326;53.660;10.200;2023-03-23T01:04:26;8.43;;;7.72;;
20336;SDS011;10326;53.660;10.200;2023-03-23T01:06:56;9.05;;;8.25;;
20336;SDS011;10326;53.660;10.200;2023-03-23T01:09:25;9.45;;;8.43;;
20336;SDS011;10326;53.660;10.200;2023-03-23T01:11:54;9.20;;;8.18;;
20336;SDS011;10326;53.660;10.200;2023-03-23T01:14:22;9.70;;;8.25;;
20336;SDS011;10326;53.660;10.200;2023-03-23T01:16:50;8.18;;;7.47;;
20336;SDS011;10326;53.660;10.200;2023-03-23T01:19:18;8.30;;;7.60;;
20336;SDS011;10326;53.660;10.200;2023-03-23T01:21:45;8.77;;;7.97;;
20336;SDS011;10326;53.660;10.200;2023-03-23T01:24:12;8.57;;;7.88;;
20336;SDS011;10326;53.660;10.200;2023-03-23T01:26:40;8.93;;;8.05;;
20336;SDS011;10326;53.660;10.200;2023-03-23T01:29:09;8.50;;;7.78;;
20336;SDS011;10326;53.660;10.200;2023-03-23T01:31:36;8.02;;;7.32;;
20336;SDS011;10326;53.660;10.200;2023-03-23T01:34:05;9.02;;;8.32;;
20336;SDS011;10326;53.660;10.200;2023-03-23T01:36:33;9.60;;;8.75;;
20336;SDS011;10326;53.660;10.200;2023-03-23T01:39:02;8.77;;;8.05;;
20336;SDS011;10326;53.660;10.200;2023-03-23T01:41:32;9.48;;;8.63;;
20336;SDS011;10326;53.660;10.200;2023-03-23T01:44:06;9.90;;;9.10;;
20336;SDS011;10326;53.660;10.200;2023-03-23T01:46:57;9.38;;;8.48;;
20336;SDS011;10326;53.660;10.200;2023-03-23T01:49:25;9.40;;;8.60;;
20336;SDS011;10326;53.660;10.200;2023-03-23T01:51:57;9.35;;;8.48;;
20336;SDS011;10326;53.660;10.200;2023-03-23T01:54:28;10.25;;;9.30;;
20336;SDS011;10326;53.660;10.200;2023-03-23T01:57:01;9.35;;;8.48;;
20336;SDS011;10326;53.660;10.200;2023-03-23T01:59:33;9.48;;;8.57;;
20336;SDS011;10326;53.660;10.200;2023-03-23T02:02:21;9.27;;;8.48;;
20336;SDS011;10326;53.660;10.200;2023-03-23T02:04:52;9.30;;;8.50;;
20336;SDS011;10326;53.660;10.200;2023-03-23T02:07:27;10.38;;;9.35;;
20336;SDS011;10326;53.660;10.200;2023-03-23T02:09:56;9.73;;;8.70;;
20336;SDS011;10326;53.660;10.200;2023-03-23T02:12:25;9.60;;;8.77;;
20336;SDS011;10326;53.660;10.200;2023-03-23T02:14:53;9.75;;;8.73;;
20336;SDS011;10326;53.660;10.200;2023-03-23T02:17:23;9.43;;;8.52;;
20336;SDS011;10326;53.660;10.200;2023-03-23T02:20:10;9.38;;;8.48;;
20336;SDS011;10326;53.660;10.200;2023-03-23T02:23:20;9.07;;;8.18;;
20336;SDS011;10326;53.660;10.200;2023-03-23T02:26:18;9.27;;;8.38;;
20336;SDS011;10326;53.660;10.200;2023-03-23T02:29:06;8.65;;;7.75;;
20336;SDS011;10326;53.660;10.200;2023-03-23T02:31:56;8.80;;;7.93;;
20336;SDS011;10326;53.660;10.200;2023-03-23T02:34:47;8.52;;;7.72;;
20336;SDS011;10326;53.660;10.200;2023-03-23T02:37:19;8.90;;;8.02;;
20336;SDS011;10326;53.660;10.200;2023-03-23T02:39:52;9.30;;;8.35;;
20336;SDS011;10326;53.660;10.200;2023-03-23T02:42:24;8.52;;;7.75;;
20336;SDS011;10326;53.660;10.200;2023-03-23T02:44:57;8.40;;;7.60;;
20336;SDS011;10326;53.660;10.200;2023-03-23T02:47:27;9.07;;;8.27;;
20336;SDS011;10326;53.660;10.200;2023-03-23T02:49:59;8.35;;;7.65;;
20336;SDS011;10326;53.660;10.200;2023-03-23T02:52:27;8.32;;;7.63;;
20336;SDS011;10326;53.660;10.200;2023-03-23T02:54:57;8.85;;;8.15;;
20336;SDS011;10326;53.660;10.200;2023-03-23T02:57:27;9.05;;;8.05;;
20336;SDS011;10326;53.660;10.200;2023-03-23T02:59:57;8.45;;;7.75;;
20336;SDS011;10326;53.660;10.200;2023-03-23T03:02:25;9.07;;;8.20;;
20336;SDS011;10326;53.660;10.200;2023-03-23T03:04:57;8.52;;;7.82;;
20336;SDS011;10326;53.660;10.200;2023-03-23T03:10:42;8.23;;;7.53;;
20336;SDS011;10326;53.660;10.200;2023-03-23T03:13:20;8.57;;;7.80;;
20336;SDS011;10326;53.660;10.200;2023-03-23T03:15:59;8.40;;;7.70;;
20336;SDS011;10326;53.660;10.200;2023-03-23T03:18:32;7.90;;;7.20;;
20336;SDS011;10326;53.660;10.200;2023-03-23T03:21:07;8.38;;;7.57;;
20336;SDS011;10326;53.660;10.200;2023-03-23T03:23:41;8.25;;;7.57;;
20336;SDS011;10326;53.660;10.200;2023-03-23T03:26:11;8.05;;;7.35;;
20336;SDS011;10326;53.660;10.200;2023-03-23T03:28:49;8.10;;;7.38;;
20336;SDS011;10326;53.660;10.200;2023-03-23T03:31:19;8.15;;;7.45;;
20336;SDS011;10326;53.660;10.200;2023-03-23T03:33:50;7.45;;;6.82;;
20336;SDS011;10326;53.660;10.200;2023-03-23T03:36:20;7.72;;;7.07;;
20336;SDS011;10326;53.660;10.200;2023-03-23T03:38:52;8.07;;;7.40;;
20336;SDS011;10326;53.660;10.200;2023-03-23T03:41:24;7.65;;;6.95;;
20336;SDS011;10326;53.660;10.200;2023-03-23T03:43:51;8.18;;;7.47;;
20336;SDS011;10326;53.660;10.200;2023-03-23T03:46:18;8.23;;;7.53;;
20336;SDS011;10326;53.660;10.200;2023-03-23T03:48:46;7.80;;;7.10;;
20336;SDS011;10326;53.660;10.200;2023-03-23T03:51:13;8.15;;;7.35;;
20336;SDS011;10326;53.660;10.200;2023-03-23T03:53:47;8.18;;;7.47;;
20336;SDS011;10326;53.660;10.200;2023-03-23T03:56:15;7.57;;;6.97;;
20336;SDS011;10326;53.660;10.200;2023-03-23T03:58:50;8.07;;;7.38;;
20336;SDS011;10326;53.660;10.200;2023-03-23T04:01:22;8.15;;;7.43;;
20336;SDS011;10326;53.660;10.200;2023-03-23T04:03:50;8.68;;;7.88;;
20336;SDS011;10326;53.660;10.200;2023-03-23T04:06:26;8.30;;;7.60;;
20336;SDS011;10326;53.660;10.200;2023-03-23T04:08:55;8.23;;;7.50;;
20336;SDS011;10326;53.660;10.200;2023-03-23T04:11:24;7.80;;;7.10;;
20336;SDS011;10326;53.660;10.200;2023-03-23T04:13:59;7.97;;;7.28;;
20336;SDS011;10326;53.660;10.200;2023-03-23T04:16:37;9.38;;;8.48;;
20336;SDS011;10326;53.660;10.200;2023-03-23T04:19:05;8.77;;;7.97;;
20336;SDS011;10326;53.660;10.200;2023-03-23T04:21:33;9.32;;;8.38;;
20336;SDS011;10326;53.660;10.200;2023-03-23T04:24:02;9.75;;;8.75;;
20336;SDS011;10326;53.660;10.200;2023-03-23T04:26:30;8.82;;;8.02;;
20336;SDS011;10326;53.660;10.200;2023-03-23T04:29:03;8.45;;;7.68;;
20336;SDS011;10326;53.660;10.200;2023-03-23T04:31:53;9.13;;;8.23;;
20336;SDS011;10326;53.660;10.200;2023-03-23T04:34:30;9.55;;;8.75;;
20336;SDS011;10326;53.660;10.200;2023-03-23T04:36:58;9.70;;;8.80;;
20336;SDS011;10326;53.660;10.200;2023-03-23T04:39:29;9.25;;;8.52;;
20336;SDS011;10326;53.660;10.200;2023-03-23T04:41:59;9.48;;;8.52;;
20336;SDS011;10326;53.660;10.200;2023-03-23T04:44:45;9.10;;;8.27;;
20336;SDS011;10326;53.660;10.200;2023-03-23T04:47:19;9.65;;;8.95;;
20336;SDS011;10326;53.660;10.200;2023-03-23T04:49:53;9.43;;;8.63;;
20336;SDS011;10326;53.660;10.200;2023-03-23T04:52:30;9.43;;;8.52;;
20336;SDS011;10326;53.660;10.200;2023-03-23T04:55:01;9.63;;;8.82;;
20336;SDS011;10326;53.660;10.200;2023-03-23T04:57:29;9.40;;;8.60;;
20336;SDS011;10326;53.660;10.200;2023-03-23T05:00:16;10.82;;;9.82;;
20336;SDS011;10326;53.660;10.200;2023-03-23T05:02:52;10.25;;;9.32;;
20336;SDS011;10326;53.660;10.200;2023-03-23T05:05:23;10.65;;;9.65;;
20336;SDS011;10326;53.660;10.200;2023-03-23T05:07:53;9.27;;;8.48;;
20336;SDS011;10326;53.660;10.200;2023-03-23T05:10:26;9.50;;;8.70;;
20336;SDS011;10326;53.660;10.200;2023-03-23T05:12:59;9.30;;;8.55;;
20336;SDS011;10326;53.660;10.200;2023-03-23T05:15:26;9.27;;;8.48;;
20336;SDS011;10326;53.660;10.200;2023-03-23T05:17:56;9.00;;;8.20;;
20336;SDS011;10326;53.660;10.200;2023-03-23T05:20:25;9.00;;;8.25;;
20336;SDS011;10326;53.660;10.200;2023-03-23T05:22:57;8.85;;;8.05;;
20336;SDS011;10326;53.660;10.200;2023-03-23T05:25:34;9.10;;;8.35;;
20336;SDS011;10326;53.660;10.200;2023-03-23T05:28:17;9.55;;;8.68;;
20336;SDS011;10326;53.660;10.200;2023-03-23T05:31:07;8.90;;;8.10;;
20336;SDS011;10326;53.660;10.200;2023-03-23T05:33:35;9.70;;;8.80;;
20336;SDS011;10326;53.660;10.200;2023-03-23T05:36:35;8.68;;;7.90;;
20336;SDS011;10326;53.660;10.200;2023-03-23T05:39:34;9.45;;;8.65;;
20336;SDS011;10326;53.660;10.200;2023-03-23T05:42:20;9.02;;;8.13;;
20336;SDS011;10326;53.660;10.200;2023-03-23T05:45:04;9.18;;;8.38;;
20336;SDS011;10326;53.660;10.200;2023-03-23T05:47:34;9.65;;;8.77;;
20336;SDS011;10326;53.660;10.200;2023-03-23T05:50:07;9.80;;;8.80;;
20336;SDS011;10326;53.660;10.200;2023-03-23T05:52:38;9.57;;;8.80;;
20336;SDS011;10326;53.660;10.200;2023-03-23T05:55:09;8.63;;;7.82;;
20336;SDS011;10326;53.660;10.200;2023-03-23T05:57:41;8.82;;;8.10;;
20336;SDS011;10326;53.660;10.200;2023-03-23T06:00:18;8.77;;;8.07;;
20336;SDS011;10326;53.660;10.200;2023-03-23T06:02:54;8.48;;;7.70;;
20336;SDS011;10326;53.660;10.200;2023-03-23T06:05:32;8.32;;;7.53;;
20336;SDS011;10326;53.660;10.200;2023-03-23T06:07:59;7.95;;;7.25;;
20336;SDS011;10326;53.660;10.200;2023-03-23T06:10:27;8.05;;;7.35;;
20336;SDS011;10326;53.660;10.200;2023-03-23T06:13:02;7.93;;;7.15;;
20336;SDS011;10326;53.660;10.200;2023-03-23T06:15:38;7.60;;;6.90;;
20336;SDS011;10326;53.660;10.200;2023-03-23T06:18:30;6.72;;;6.03;;
20336;SDS011;10326;53.660;10.200;2023-03-23T06:21:17;7.03;;;6.32;;
20336;SDS011;10326;53.660;10.200;2023-03-23T06:23:54;6.65;;;6.03;;
20336;SDS011;10326;53.660;10.200;2023-03-23T06:26:28;7.78;;;6.15;;
20336;SDS011;10326;53.660;10.200;2023-03-23T06:29:02;7.03;;;6.28;;
20336;SDS011;10326;53.660;10.200;2023-03-23T06:31:37;7.30;;;6.10;;
20336;SDS011;10326;53.660;10.200;2023-03-23T06:34:05;6.43;;;5.72;;
20336;SDS011;10326;53.660;10.200;2023-03-23T06:36:53;7.07;;;6.38;;
20336;SDS011;10326;53.660;10.200;2023-03-23T06:39:34;6.32;;;5.80;;
20336;SDS011;10326;53.660;10.200;2023-03-23T06:42:28;5.60;;;4.82;;
20336;SDS011;10326;53.660;10.200;2023-03-23T06:45:16;6.10;;;5.50;;
20336;SDS011;10326;53.660;10.200;2023-03-23T06:47:45;6.65;;;5.00;;
20336;SDS011;10326;53.660;10.200;2023-03-23T06:50:13;6.15;;;5.55;;
20336;SDS011;10326;53.660;10.200;2023-03-23T06:52:44;5.20;;;4.70;;
20336;SDS011;10326;53.660;10.200;2023-03-23T06:55:12;5.40;;;4.90;;
20336;SDS011;10326;53.660;10.200;2023-03-23T06:57:40;5.45;;;4.72;;
20336;SDS011;10326;53.660;10.200;2023-03-23T07:00:08;5.07;;;4.57;;
20336;SDS011;10326;53.660;10.200;2023-03-23T07:02:41;5.32;;;4.20;;
20336;SDS011;10326;53.660;10.200;2023-03-23T07:05:11;5.18;;;4.65;;
20336;SDS011;10326;53.660;10.200;2023-03-23T07:07:40;5.70;;;4.82;;
20336;SDS011;10326;53.660;10.200;2023-03-23T07:10:30;5.15;;;4.55;;
20336;SDS011;10326;53.660;10.200;2023-03-23T07:13:00;4.97;;;4.22;;
20336;SDS011;10326;53.660;10.200;2023-03-23T07:15:38;4.57;;;4.18;;
20336;SDS011;10326;53.660;10.200;2023-03-23T07:18:07;5.13;;;4.63;;
20336;SDS011;10326;53.660;10.200;2023-03-23T07:20:40;6.53;;;4.35;;
20336;SDS011;10326;53.660;10.200;2023-03-23T07:23:08;4.25;;;3.85;;
20336;SDS011;10326;53.660;10.200;2023-03-23T07:25:43;5.55;;;4.57;;
20336;SDS011;10326;53.660;10.200;2023-03-23T07:28:16;5.95;;;4.32;;
20336;SDS011;10326;53.660;10.200;2023-03-23T07:30:45;4.55;;;4.15;;
20336;SDS011;10326;53.660;10.200;2023-03-23T07:33:13;5.25;;;4.22;;
20336;SDS011;10326;53.660;10.200;2023-03-23T07:35:41;4.35;;;4.00;;
20336;SDS011;10326;53.660;10.200;2023-03-23T07:38:13;5.93;;;4.13;;
20336;SDS011;10326;53.660;10.200;2023-03-23T07:40:45;5.00;;;4.30;;
20336;SDS011;10326;53.660;10.200;2023-03-23T07:43:16;4.78;;;4.30;;
20336;SDS011;10326;53.660;10.200;2023-03-23T07:46:19;5.18;;;3.78;;
20336;SDS011;10326;53.660;10.200;2023-03-23T07:48:57;4.97;;;4.47;;
20336;SDS011;10326;53.660;10.200;2023-03-23T07:51:34;4.47;;;4.03;;
20336;SDS011;10326;53.660;10.200;2023-03-23T07:54:04;4.07;;;3.38;;
20336;SDS011;10326;53.660;10.200;2023-03-23T07:56:52;3.97;;;3.45;;
20336;SDS011;10326;53.660;10.200;2023-03-23T07:59:24;4.70;;;3.83;;
20336;SDS011;10326;53.660;10.200;2023-03-23T08:01:53;4.60;;;3.65;;
20336;SDS011;10326;53.660;10.200;2023-03-23T08:04:53;5.68;;;4.03;;
20336;SDS011;10326;53.660;10.200;2023-03-23T08:07:37;4.60;;;4.13;;
20336;SDS011;10326;53.660;10.200;2023-03-23T08:10:24;5.55;;;4.47;;
20336;SDS011;10326;53.660;10.200;2023-03-23T08:12:55;5.57;;;4.00;;
20336;SDS011;10326;53.660;10.200;2023-03-23T08:15:42;5.00;;;4.60;;
20336;SDS011;10326;53.660;10.200;2023-03-23T08:18:27;5.38;;;4.55;;
20336;SDS011;10326;53.660;10.200;2023-03-23T08:21:08;4.18;;;3.75;;
20336;SDS011;10326;53.660;10.200;2023-03-23T08:23:54;2.88;;;2.25;;
20336;SDS011;10326;53.660;10.200;2023-03-23T08:26:29;2.60;;;1.80;;
20336;SDS011;10326;53.660;10.200;2023-03-23T08:29:18;2.72;;;1.77;;
20336;SDS011;10326;53.660;10.200;2023-03-23T08:32:04;2.60;;;1.60;;
20336;SDS011;10326;53.660;10.200;2023-03-23T08:34:43;2.15;;;1.35;;
20336;SDS011;10326;53.660;10.200;2023-03-23T08:37:31;1.65;;;1.20;;
20336;SDS011;10326;53.660;10.200;2023-03-23T08:40:19;1.70;;;0.93;;
20336;SDS011;10326;53.660;10.200;2023-03-23T08:42:57;1.60;;;1.13;;
20336;SDS011;10326;53.660;10.200;2023-03-23T08:45:34;1.90;;;1.25;;
20336;SDS011;10326;53.660;10.200;2023-03-23T08:48:01;1.85;;;1.27;;
20336;SDS011;10326;53.660;10.200;2023-03-23T08:50:35;2.58;;;1.23;;
20336;SDS011;10326;53.660;10.200;2023-03-23T08:53:22;1.52;;;1.30;;
20336;SDS011;10326;53.660;10.200;2023-03-23T08:56:18;2.38;;;1.50;;
20336;SDS011;10326;53.660;10.200;2023-03-23T08:59:14;2.72;;;1.70;;
20336;SDS011;10326;53.660;10.200;2023-03-23T09:01:55;3.53;;;1.50;;
20336;SDS011;10326;53.660;10.200;2023-03-23T09:04:41;2.03;;;1.60;;
20336;SDS011;10326;53.660;10.200;2023-03-23T09:07:09;2.10;;;1.65;;
20336;SDS011;10326;53.660;10.200;2023-03-23T09:09:41;1.48;;;1.38;;
20336;SDS011;10326;53.660;10.200;2023-03-23T09:12:09;2.17;;;1.70;;
20336;SDS011;10326;53.660;10.200;2023-03-23T09:14:37;2.22;;;1.80;;
20336;SDS011;10326;53.660;10.200;2023-03-23T09:17:04;3.00;;;1.90;;
20336;SDS011;10326;53.660;10.200;2023-03-23T09:19:32;3.40;;;2.20;;
20336;SDS011;10326;53.660;10.200;2023-03-23T09:22:01;3.00;;;2.35;;
20336;SDS011;10326;53.660;10.200;2023-03-23T09:24:29;3.03;;;2.30;;
20336;SDS011;10326;53.660;10.200;2023-03-23T09:26:57;5.45;;;2.40;;
20336;SDS011;10326;53.660;10.200;2023-03-23T09:29:25;4.93;;;2.60;;
20336;SDS011;10326;53.660;10.200;2023-03-23T09:31:52;4.90;;;2.38;;
20336;SDS011;10326;53.660;10.200;2023-03-23T09:34:21;4.57;;;2.40;;
20336;SDS011;10326;53.660;10.200;2023-03-23T09:36:49;4.13;;;2.40;;
20336;SDS011;10326;53.660;10.200;2023-03-23T09:39:17;3.75;;;2.33;;
20336;SDS011;10326;53.660;10.200;2023-03-23T09:41:49;5.00;;;2.40;;
20336;SDS011;10326;53.660;10.200;2023-03-23T09:44:43;5.65;;;2.38;;
20336;SDS011;10326;53.660;10.200;2023-03-23T09:47:25;5.82;;;2.58;;
20336;SDS011;10326;53.660;10.200;2023-03-23T09:50:04;5.70;;;2.30;;
20336;SDS011;10326;53.660;10.200;2023-03-23T09:52:39;5.82;;;2.15;;
20336;SDS011;10326;53.660;10.200;2023-03-23T09:55:11;5.20;;;2.17;;
20336;SDS011;10326;53.660;10.200;2023-03-23T09:57:45;6.38;;;2.17;;
20336;SDS011;10326;53.660;10.200;2023-03-23T10:00:18;6.75;;;2.20;;
20336;SDS011;10326;53.660;10.200;2023-03-23T10:02:52;5.50;;;2.17;;
20336;SDS011;10326;53.660;10.200;2023-03-23T10:05:29;5.75;;;2.53;;
20336;SDS011;10326;53.660;10.200;2023-03-23T10:07:59;5.35;;;2.25;;
20336;SDS011;10326;53.660;10.200;2023-03-23T10:10:31;6.30;;;2.20;;
20336;SDS011;10326;53.660;10.200;2023-03-23T10:13:13;4.65;;;2.33;;
20336;SDS011;10326;53.660;10.200;2023-03-23T10:15:49;9.27;;;2.60;;
20336;SDS011;10326;53.660;10.200;2023-03-23T10:18:19;7.28;;;2.15;;
20336;SDS011;10326;53.660;10.200;2023-03-23T10:20:54;6.82;;;2.22;;
20336;SDS011;10326;53.660;10.200;2023-03-23T10:23:36;5.82;;;2.55;;
20336;SDS011;10326;53.660;10.200;2023-03-23T10:26:20;6.28;;;2.13;;
20336;SDS011;10326;53.660;10.200;2023-03-23T10:28:59;6.53;;;2.83;;
20336;SDS011;10326;53.660;10.200;2023-03-23T10:31:42;7.25;;;2.33;;
20336;SDS011;10326;53.660;10.200;2023-03-23T10:34:15;6.95;;;2.30;;
20336;SDS011;10326;53.660;10.200;2023-03-23T10:36:51;6.38;;;2.30;;
20336;SDS011;10326;53.660;10.200;2023-03-23T10:39:27;6.50;;;1.80;;
20336;SDS011;10326;53.660;10.200;2023-03-23T10:41:59;6.80;;;2.47;;
20336;SDS011;10326;53.660;10.200;2023-03-23T10:44:33;8.35;;;2.67;;
20336;SDS011;10326;53.660;10.200;2023-03-23T10:47:02;5.05;;;2.13;;
20336;SDS011;10326;53.660;10.200;2023-03-23T10:49:33;5.50;;;1.90;;
20336;SDS011;10326;53.660;10.200;2023-03-23T10:52:07;8.65;;;2.60;;
20336;SDS011;10326;53.660;10.200;2023-03-23T10:54:49;5.32;;;2.10;;
20336;SDS011;10326;53.660;10.200;2023-03-23T10:57:21;7.63;;;2.55;;
20336;SDS011;10326;53.660;10.200;2023-03-23T10:59:59;9.23;;;2.30;;
20336;SDS011;10326;53.660;10.200;2023-03-23T11:02:32;7.28;;;2.40;;
20336;SDS011;10326;53.660;10.200;2023-03-23T11:05:07;7.05;;;2.35;;
20336;SDS011;10326;53.660;10.200;2023-03-23T11:07:49;7.28;;;2.53;;
20336;SDS011;10326;53.660;10.200;2023-03-23T11:10:21;6.63;;;2.17;;
20336;SDS011;10326;53.660;10.200;2023-03-23T11:12:51;7.18;;;2.40;;
20336;SDS011;10326;53.660;10.200;2023-03-23T11:15:28;8.85;;;2.88;;
20336;SDS011;10326;53.660;10.200;2023-03-23T11:17:58;6.88;;;2.42;;
20336;SDS011;10326;53.660;10.200;2023-03-23T11:20:28;5.30;;;2.05;;
20336;SDS011;10326;53.660;10.200;2023-03-23T11:23:07;6.78;;;2.38;;
20336;SDS011;10326;53.660;10.200;2023-03-23T11:28:37;6.43;;;2.47;;
20336;SDS011;10326;53.660;10.200;2023-03-23T11:31:11;9.38;;;2.10;;
20336;SDS011;10326;53.660;10.200;2023-03-23T11:33:42;6.22;;;2.25;;
20336;SDS011;10326;53.660;10.200;2023-03-23T11:36:17;7.25;;;2.78;;
20336;SDS011;10326;53.660;10.200;2023-03-23T11:38:45;9.45;;;2.75;;
20336;SDS011;10326;53.660;10.200;2023-03-23T11:41:16;6.20;;;2.15;;
20336;SDS011;10326;53.660;10.200;2023-03-23T11:43:46;7.78;;;2.65;;
20336;SDS011;10326;53.660;10.200;2023-03-23T11:46:18;9.95;;;2.70;;
20336;SDS011;10326;53.660;10.200;2023-03-23T11:48:59;11.15;;;2.95;;
20336;SDS011;10326;53.660;10.200;2023-03-23T11:51:30;8.13;;;2.50;;
20336;SDS011;10326;53.660;10.200;2023-03-23T11:54:07;7.95;;;2.13;;
20336;SDS011;10326;53.660;10.200;2023-03-23T11:56:43;8.48;;;2.20;;
20336;SDS011;10326;53.660;10.200;2023-03-23T11:59:12;5.45;;;2.22;;
20336;SDS011;10326;53.660;10.200;2023-03-23T12:01:48;7.13;;;2.78;;
20336;SDS011;10326;53.660;10.200;2023-03-23T12:07:25;7.10;;;2.40;;
20336;SDS011;10326;53.660;10.200;2023-03-23T12:10:21;7.85;;;2.55;;
20336;SDS011;10326;53.660;10.200;2023-03-23T12:12:56;9.57;;;2.78;;
20336;SDS011;10326;53.660;10.200;2023-03-23T12:15:43;8.98;;;3.17;;
20336;SDS011;10326;53.660;10.200;2023-03-23T12:18:20;6.97;;;2.97;;
20336;SDS011;10326;53.660;10.200;2023-03-23T12:20:57;6.57;;;2.72;;
20336;SDS011;10326;53.660;10.200;2023-03-23T12:23:40;5.57;;;2.65;;
20336;SDS011;10326;53.660;10.200;2023-03-23T12:26:17;8.40;;;3.03;;
20336;SDS011;10326;53.660;10.200;2023-03-23T12:28:56;7.78;;;2.63;;
20336;SDS011;10326;53.660;10.200;2023-03-23T12:31:52;8.30;;;2.90;;
20336;SDS011;10326;53.660;10.200;2023-03-23T12:34:44;8.32;;;3.20;;
20336;SDS011;10326;53.660;10.200;2023-03-23T12:37:22;7.38;;;3.13;;
20336;SDS011;10326;53.660;10.200;2023-03-23T12:40:19;9.57;;;3.17;;
20336;SDS011;10326;53.660;10.200;2023-03-23T12:42:59;5.53;;;2.70;;
20336;SDS011;10326;53.660;10.200;2023-03-23T12:45:43;6.18;;;2.85;;
20336;SDS011;10326;53.660;10.200;2023-03-23T12:48:42;7.07;;;2.80;;
20336;SDS011;10326;53.660;10.200;2023-03-23T12:51:16;5.78;;;2.70;;
20336;SDS011;10326;53.660;10.200;2023-03-23T12:53:53;8.20;;;3.65;;
20336;SDS011;10326;53.660;10.200;2023-03-23T12:56:29;7.10;;;3.30;;
20336;SDS011;10326;53.660;10.200;2023-03-23T12:59:10;6.53;;;3.10;;
20336;SDS011;10326;53.660;10.200;2023-03-23T13:01:45;8.77;;;3.38;;
20336;SDS011;10326;53.660;10.200;2023-03-23T13:04:18;5.68;;;3.40;;
20336;SDS011;10326;53.660;10.200;2023-03-23T13:06:50;6.07;;;2.90;;
20336;SDS011;10326;53.660;10.200;2023-03-23T13:09:19;5.35;;;2.75;;
20336;SDS011;10326;53.660;10.200;2023-03-23T13:11:59;5.00;;;2.90;;
20336;SDS011;10326;53.660;10.200;2023-03-23T13:14:33;6.22;;;2.90;;
20336;SDS011;10326;53.660;10.200;2023-03-23T13:17:11;7.63;;;3.08;;
20336;SDS011;10326;53.660;10.200;2023-03-23T13:20:11;7.68;;;3.17;;
20336;SDS011;10326;53.660;10.200;2023-03-23T13:23:11;7.70;;;2.97;;
20336;SDS011;10326;53.660;10.200;2023-03-23T13:25:46;7.38;;;3.00;;
20336;SDS011;10326;53.660;10.200;2023-03-23T13:28:18;6.47;;;3.63;;
20336;SDS011;10326;53.660;10.200;2023-03-23T13:30:55;6.95;;;3.05;;
20336;SDS011;10326;53.660;10.200;2023-03-23T13:33:25;6.57;;;3.45;;
20336;SDS011;10326;53.660;10.200;2023-03-23T13:35:57;8.65;;;3.15;;
20336;SDS011;10326;53.660;10.200;2023-03-23T13:38:34;12.02;;;3.90;;
20336;SDS011;10326;53.660;10.200;2023-03-23T13:41:06;10.57;;;2.85;;
20336;SDS011;10326;53.660;10.200;2023-03-23T13:43:38;6.75;;;2.85;;
20336;SDS011;10326;53.660;10.200;2023-03-23T13:46:09;5.50;;;2.92;;
20336;SDS011;10326;53.660;10.200;2023-03-23T13:49:02;7.15;;;3.35;;
20336;SDS011;10326;53.660;10.200;2023-03-23T13:51:51;4.72;;;2.67;;
20336;SDS011;10326;53.660;10.200;2023-03-23T13:54:39;5.75;;;2.53;;
20336;SDS011;10326;53.660;10.200;2023-03-23T14:00:27;7.45;;;2.80;;
20336;SDS011;10326;53.660;10.200;2023-03-23T14:03:13;4.63;;;2.55;;
20336;SDS011;10326;53.660;10.200;2023-03-23T14:05:44;8.00;;;3.10;;
20336;SDS011;10326;53.660;10.200;2023-03-23T14:08:21;7.47;;;2.72;;
20336;SDS011;10326;53.660;10.200;2023-03-23T14:10:52;2.80;;;1.40;;
20336;SDS011;10326;53.660;10.200;2023-03-23T14:13:28;2.20;;;1.60;;
20336;SDS011;10326;53.660;10.200;2023-03-23T14:16:00;2.53;;;1.20;;
20336;SDS011;10326;53.660;10.200;2023-03-23T14:18:31;1.70;;;1.30;;
20336;SDS011;10326;53.660;10.200;2023-03-23T14:21:03;2.70;;;1.45;;
20336;SDS011;10326;53.660;10.200;2023-03-23T14:23:31;1.95;;;1.10;;
20336;SDS011;10326;53.660;10.200;2023-03-23T14:26:02;1.58;;;1.17;;
20336;SDS011;10326;53.660;10.200;2023-03-23T14:28:40;2.75;;;1.05;;
20336;SDS011;10326;53.660;10.200;2023-03-23T14:31:14;2.47;;;1.25;;
20336;SDS011;10326;53.660;10.200;2023-03-23T14:33:45;2.20;;;1.23;;
20336;SDS011;10326;53.660;10.200;2023-03-23T14:36:14;3.58;;;1.42;;
20336;SDS011;10326;53.660;10.200;2023-03-23T14:38:46;2.28;;;1.33;;
20336;SDS011;10326;53.660;10.200;2023-03-23T14:41:16;2.92;;;1.45;;
20336;SDS011;10326;53.660;10.200;2023-03-23T14:43:43;3.58;;;1.77;;
20336;SDS011;10326;53.660;10.200;2023-03-23T14:46:12;2.28;;;1.45;;
20336;SDS011;10326;53.660;10.200;2023-03-23T14:48:40;2.05;;;1.50;;
20336;SDS011;10326;53.660;10.200;2023-03-23T14:51:15;3.72;;;2.08;;
20336;SDS011;10326;53.660;10.200;2023-03-23T14:53:45;2.00;;;1.60;;
20336;SDS011;10326;53.660;10.200;2023-03-23T14:56:18;3.22;;;1.83;;
20336;SDS011;10326;53.660;10.200;2023-03-23T14:58:53;2.70;;;1.80;;
20336;SDS011;10326;53.660;10.200;2023-03-23T15:01:22;2.28;;;1.60;;
20336;SDS011;10326;53.660;10.200;2023-03-23T15:03:53;2.90;;;1.65;;
20336;SDS011;10326;53.660;10.200;2023-03-23T15:06:26;3.38;;;1.75;;
20336;SDS011;10326;53.660;10.200;2023-03-23T15:08:59;1.98;;;1.33;;
20336;SDS011;10326;53.660;10.200;2023-03-23T15:11:32;3.08;;;1.83;;
20336;SDS011;10326;53.660;10.200;2023-03-23T15:14:02;2.55;;;1.52;;
20336;SDS011;10326;53.660;10.200;2023-03-23T15:16:45;4.82;;;2.03;;
20336;SDS011;10326;53.660;10.200;2023-03-23T15:19:16;5.40;;;2.08;;
20336;SDS011;10326;53.660;10.200;2023-03-23T15:21:47;4.78;;;1.92;;
20336;SDS011;10326;53.660;10.200;2023-03-23T15:24:24;4.35;;;1.73;;
20336;SDS011;10326;53.660;10.200;2023-03-23T15:27:03;4.28;;;1.92;;
20336;SDS011;10326;53.660;10.200;2023-03-23T15:29:49;3.15;;;2.08;;
20336;SDS011;10326;53.660;10.200;2023-03-23T15:32:23;3.63;;;1.80;;